sensor_id;sensor_type;location;lat;lon;timestamp;temperature;humidity
30336;DHT22;17142;47.990;7.846;2023-02-01T06:36:18;4.20;99.90
30336;DHT22;17142;47.990;7.846;2023-02-01T06:38:47;4.20;99.90
30336;DHT22;17142;47.990;7.846;2023-02-01T06:41:15;4.20;99.90
30336;DHT22;17142;47.990;7.846;2023-02-01T06:43:41;4.20;99.90
30336;DHT22;17142;47.990;7.846;2023-02-01T06:46:11;4.20;99.90
30336;DHT22;17142;47.990;7.846;2023-02-01T06:48:37;4.20;99.90
30336;DHT22;17142;47.990;7.846;2023-02-01T06:51:05;4.20;99.90
30336;DHT22;17142;47.990;7.846;2023-02-01T06:53:35;4.20;99.90
30336;DHT22;17142;47.990;7.846;2023-02-01T06:56:02;4.20;99.90
30336;DHT22;17142;47.990;7.846;2023-02-01T06:58:32;4.20;99.90
30336;DHT22;17142;47.990;7.846;2023-02-01T07:01:04;4.30;99.90
30336;DHT22;17142;47.990;7.846;2023-02-01T07:03:32;4.30;99.90
30336;DHT22;17142;47.990;7.846;2023-02-01T07:05:58;4.40;99.90
30336;DHT22;17142;47.990;7.846;2023-02-01T07:08:27;4.40;99.90
30336;DHT22;17142;47.990;7.846;2023-02-01T07:10:52;4.40;99.90
30336;DHT22;17142;47.990;7.846;2023-02-01T07:13:18;4.40;99.90
30336;DHT22;17142;47.990;7.846;2023-02-01T07:15:44;4.40;99.90
30336;DHT22;17142;47.990;7.846;2023-02-01T07:18:15;4.40;99.90
30336;DHT22;17142;47.990;7.846;2023-02-01T07:20:41;4.50;99.90
30336;DHT22;17142;47.990;7.846;2023-02-01T07:23:09;4.50;99.90
30336;DHT22;17142;47.990;7.846;2023-02-01T07:25:35;4.50;99.90
30336;DHT22;17142;47.990;7.846;2023-02-01T07:28:01;4.60;99.90
30336;DHT22;17142;47.990;7.846;2023-02-01T07:30:29;4.70;99.90
30336;DHT22;17142;47.990;7.846;2023-02-01T07:32:57;4.70;99.90
30336;DHT22;17142;47.990;7.846;2023-02-01T07:35:29;4.80;99.90
30336;DHT22;17142;47.990;7.846;2023-02-01T07:37:56;4.80;99.90
30336;DHT22;17142;47.990;7.846;2023-02-01T07:40:24;4.80;99.90
30336;DHT22;17142;47.990;7.846;2023-02-01T07:42:57;4.90;99.90
30336;DHT22;17142;47.990;7.846;2023-02-01T07:45:23;4.90;99.90
30336;DHT22;17142;47.990;7.846;2023-02-01T07:47:50;4.90;99.90
30336;DHT22;17142;47.990;7.846;2023-02-01T07:50:16;5.00;99.90
30336;DHT22;17142;47.990;7.846;2023-02-01T07:52:42;5.00;99.90
30336;DHT22;17142;47.990;7.846;2023-02-01T07:55:08;4.90;99.90
30336;DHT22;17142;47.990;7.846;2023-02-01T07:57:34;4.90;99.90
30336;DHT22;17142;47.990;7.846;2023-02-01T07:59:59;4.80;99.90
30336;DHT22;17142;47.990;7.846;2023-02-01T08:02:43;4.80;99.90
30336;DHT22;17142;47.990;7.846;2023-02-01T08:05:11;4.80;99.90
30336;DHT22;17142;47.990;7.846;2023-02-01T08:07:39;4.90;99.90
30336;DHT22;17142;47.990;7.846;2023-02-01T08:10:05;4.90;99.90
30336;DHT22;17142;47.990;7.846;2023-02-01T08:12:38;5.00;99.90
30336;DHT22;17142;47.990;7.846;2023-02-01T08:15:04;5.00;99.90
30336;DHT22;17142;47.990;7.846;2023-02-01T08:17:30;5.10;99.90
30336;DHT22;17142;47.990;7.846;2023-02-01T08:19:56;5.10;99.90
30336;DHT22;17142;47.990;7.846;2023-02-01T08:22:21;5.10;99.90
30336;DHT22;17142;47.990;7.846;2023-02-01T08:24:50;5.10;99.90
30336;DHT22;17142;47.990;7.846;2023-02-01T08:27:19;5.10;99.90
30336;DHT22;17142;47.990;7.846;2023-02-01T08:29:45;5.10;99.90
30336;DHT22;17142;47.990;7.846;2023-02-01T08:32:12;5.20;99.90
30336;DHT22;17142;47.990;7.846;2023-02-01T08:34:38;5.30;99.90
30336;DHT22;17142;47.990;7.846;2023-02-01T08:37:03;5.40;99.90
30336;DHT22;17142;47.990;7.846;2023-02-01T08:39:34;5.40;99.90
30336;DHT22;17142;47.990;7.846;2023-02-01T08:42:01;5.50;99.90
30336;DHT22;17142;47.990;7.846;2023-02-01T08:44:45;5.50;99.90
30336;DHT22;17142;47.990;7.846;2023-02-01T08:47:12;5.50;99.90
30336;DHT22;17142;47.990;7.846;2023-02-01T08:49:38;5.50;99.90
30336;DHT22;17142;47.990;7.846;2023-02-01T08:52:03;5.50;99.90
30336;DHT22;17142;47.990;7.846;2023-02-01T08:54:29;5.60;99.90
30336;DHT22;17142;47.990;7.846;2023-02-01T08:56:55;5.50;99.90
30336;DHT22;17142;47.990;7.846;2023-02-01T08:59:23;5.50;99.90
30336;DHT22;17142;47.990;7.846;2023-02-01T09:01:49;5.50;99.90
30336;DHT22;17142;47.990;7.846;2023-02-01T09:04:15;5.50;99.90
30336;DHT22;17142;47.990;7.846;2023-02-01T09:06:41;5.40;99.90
30336;DHT22;17142;47.990;7.846;2023-02-01T09:09:06;5.30;99.90
30336;DHT22;17142;47.990;7.846;2023-02-01T09:11:32;5.30;99.90
30336;DHT22;17142;47.990;7.846;2023-02-01T09:14:00;5.30;99.90
30336;DHT22;17142;47.990;7.846;2023-02-01T09:16:28;5.40;99.90
30336;DHT22;17142;47.990;7.846;2023-02-01T09:18:56;5.40;99.90
30336;DHT22;17142;47.990;7.846;2023-02-01T09:21:22;5.50;99.90
30336;DHT22;17142;47.990;7.846;2023-02-01T09:23:51;5.70;99.90
30336;DHT22;17142;47.990;7.846;2023-02-01T09:26:19;5.80;99.90
30336;DHT22;17142;47.990;7.846;2023-02-01T09:28:44;6.00;99.90
30336;DHT22;17142;47.990;7.846;2023-02-01T09:31:10;6.10;99.90
30336;DHT22;17142;47.990;7.846;2023-02-01T09:33:36;6.20;99.90
30336;DHT22;17142;47.990;7.846;2023-02-01T09:36:04;6.30;99.90
30336;DHT22;17142;47.990;7.846;2023-02-01T09:38:31;6.20;99.90
30336;DHT22;17142;47.990;7.846;2023-02-01T09:40:58;6.20;99.90
30336;DHT22;17142;47.990;7.846;2023-02-01T09:43:43;6.20;99.90
30336;DHT22;17142;47.990;7.846;2023-02-01T09:46:28;6.30;99.90
30336;DHT22;17142;47.990;7.846;2023-02-01T09:48:56;6.30;99.90
30336;DHT22;17142;47.990;7.846;2023-02-01T09:51:36;6.30;99.90
30336;DHT22;17142;47.990;7.846;2023-02-01T09:54:22;6.20;99.90
30336;DHT22;17142;47.990;7.846;2023-02-01T09:56:58;6.10;99.90
30336;DHT22;17142;47.990;7.846;2023-02-01T09:59:41;6.20;99.90
30336;DHT22;17142;47.990;7.846;2023-02-01T10:02:17;6.30;99.90
30336;DHT22;17142;47.990;7.846;2023-02-01T10:04:46;6.60;99.90
30336;DHT22;17142;47.990;7.846;2023-02-01T10:10:25;6.90;99.90
30336;DHT22;17142;47.990;7.846;2023-02-01T10:15:45;6.90;99.90
30336;DHT22;17142;47.990;7.846;2023-02-01T10:18:23;6.80;99.90
30336;DHT22;17142;47.990;7.846;2023-02-01T10:24:16;6.90;99.90
30336;DHT22;17142;47.990;7.846;2023-02-01T10:26:46;7.00;99.90
30336;DHT22;17142;47.990;7.846;2023-02-01T10:29:20;7.20;99.90
30336;DHT22;17142;47.990;7.846;2023-02-01T10:31:47;7.20;99.90
30336;DHT22;17142;47.990;7.846;2023-02-01T10:34:27;7.20;99.90
30336;DHT22;17142;47.990;7.846;2023-02-01T10:39:27;7.10;99.90
30336;DHT22;17142;47.990;7.846;2023-02-01T10:41:55;7.00;99.90
30336;DHT22;17142;47.990;7.846;2023-02-01T10:44:26;6.90;99.90
30336;DHT22;17142;47.990;7.846;2023-02-01T10:46:52;6.90;99.90
30336;DHT22;17142;47.990;7.846;2023-02-01T10:49:29;6.90;99.90
30336;DHT22;17142;47.990;7.846;2023-02-01T10:52:20;6.90;99.90
30336;DHT22;17142;47.990;7.846;2023-02-01T10:54:49;6.90;99.90
30336;DHT22;17142;47.990;7.846;2023-02-01T10:57:25;7.00;99.90
30336;DHT22;17142;47.990;7.846;2023-02-01T10:59:52;7.00;99.90
30336;DHT22;17142;47.990;7.846;2023-02-01T11:02:33;7.00;99.90
30336;DHT22;17142;47.990;7.846;2023-02-01T11:05:09;7.00;99.90
30336;DHT22;17142;47.990;7.846;2023-02-01T11:07:39;7.10;99.90
30336;DHT22;17142;47.990;7.846;2023-02-01T11:10:06;7.10;99.90
30336;DHT22;17142;47.990;7.846;2023-02-01T11:12:34;7.10;99.90
30336;DHT22;17142;47.990;7.846;2023-02-01T11:17:47;7.20;99.90
30336;DHT22;17142;47.990;7.846;2023-02-01T11:20:18;7.30;99.90
30336;DHT22;17142;47.990;7.846;2023-02-01T11:22:55;7.40;99.90
30336;DHT22;17142;47.990;7.846;2023-02-01T11:25:22;7.60;99.90
30336;DHT22;17142;47.990;7.846;2023-02-01T11:27:49;7.70;99.90
30336;DHT22;17142;47.990;7.846;2023-02-01T11:30:34;7.80;99.90
30336;DHT22;17142;47.990;7.846;2023-02-01T11:33:03;7.80;99.90
30336;DHT22;17142;47.990;7.846;2023-02-01T11:35:32;8.00;99.90
30336;DHT22;17142;47.990;7.846;2023-02-01T11:37:59;8.10;99.90
30336;DHT22;17142;47.990;7.846;2023-02-01T11:40:34;8.10;99.90
30336;DHT22;17142;47.990;7.846;2023-02-01T11:43:15;8.20;99.90
30336;DHT22;17142;47.990;7.846;2023-02-01T11:45:54;8.30;99.90
30336;DHT22;17142;47.990;7.846;2023-02-01T11:48:20;8.30;99.90
30336;DHT22;17142;47.990;7.846;2023-02-01T11:56:19;8.20;99.90
30336;DHT22;17142;47.990;7.846;2023-02-01T12:06:57;8.10;99.90
30336;DHT22;17142;47.990;7.846;2023-02-01T12:12:16;8.10;99.90
30336;DHT22;17142;47.990;7.846;2023-02-01T12:22:59;7.90;99.90
30336;DHT22;17142;47.990;7.846;2023-02-01T12:39:40;7.90;99.90
30336;DHT22;17142;47.990;7.846;2023-02-01T12:42:17;7.90;99.90
30336;DHT22;17142;47.990;7.846;2023-02-01T12:47:35;7.70;99.90
30336;DHT22;17142;47.990;7.846;2023-02-01T12:53:09;7.50;99.90
30336;DHT22;17142;47.990;7.846;2023-02-01T12:56:08;7.40;99.90
30336;DHT22;17142;47.990;7.846;2023-02-01T12:58:43;7.30;99.90
30336;DHT22;17142;47.990;7.846;2023-02-01T13:01:32;7.20;99.90
30336;DHT22;17142;47.990;7.846;2023-02-01T13:04:38;7.10;99.90
30336;DHT22;17142;47.990;7.846;2023-02-01T13:12:15;7.20;99.90
30336;DHT22;17142;47.990;7.846;2023-02-01T13:14:50;7.20;99.90
30336;DHT22;17142;47.990;7.846;2023-02-01T13:17:27;7.30;99.90
30336;DHT22;17142;47.990;7.846;2023-02-01T13:22:47;7.30;99.90
30336;DHT22;17142;47.990;7.846;2023-02-01T13:28:03;7.40;99.90
30336;DHT22;17142;47.990;7.846;2023-02-01T13:41:58;7.40;99.90
30336;DHT22;17142;47.990;7.846;2023-02-01T13:44:50;7.30;99.90
30336;DHT22;17142;47.990;7.846;2023-02-01T13:49:51;7.20;99.90
30336;DHT22;17142;47.990;7.846;2023-02-01T13:52:34;7.10;99.90
30336;DHT22;17142;47.990;7.846;2023-02-01T14:00:39;6.90;99.90
30336;DHT22;17142;47.990;7.846;2023-02-01T14:11:42;6.80;99.90
30336;DHT22;17142;47.990;7.846;2023-02-01T14:19:34;6.80;99.90
30336;DHT22;17142;47.990;7.846;2023-02-01T14:24:53;6.70;99.90
30336;DHT22;17142;47.990;7.846;2023-02-01T14:27:29;6.70;99.90
30336;DHT22;17142;47.990;7.846;2023-02-01T14:30:02;6.70;99.90
30336;DHT22;17142;47.990;7.846;2023-02-01T14:32:33;6.70;99.90
30336;DHT22;17142;47.990;7.846;2023-02-01T14:35:07;6.60;99.90
30336;DHT22;17142;47.990;7.846;2023-02-01T14:37:38;6.60;99.90
30336;DHT22;17142;47.990;7.846;2023-02-01T14:42:42;6.50;99.90
30336;DHT22;17142;47.990;7.846;2023-02-01T14:55:53;6.40;99.90
30336;DHT22;17142;47.990;7.846;2023-02-01T14:58:56;6.40;99.90
30336;DHT22;17142;47.990;7.846;2023-02-01T15:01:35;6.40;99.90
30336;DHT22;17142;47.990;7.846;2023-02-01T15:09:29;6.30;99.90
30336;DHT22;17142;47.990;7.846;2023-02-01T15:14:42;6.30;99.90
30336;DHT22;17142;47.990;7.846;2023-02-01T15:20:24;6.30;99.90
30336;DHT22;17142;47.990;7.846;2023-02-01T15:23:05;6.30;99.90
30336;DHT22;17142;47.990;7.846;2023-02-01T15:25:35;6.30;99.90
30336;DHT22;17142;47.990;7.846;2023-02-01T15:28:02;6.30;99.90
30336;DHT22;17142;47.990;7.846;2023-02-01T15:30:31;6.30;99.90
30336;DHT22;17142;47.990;7.846;2023-02-01T15:38:34;6.20;99.90
30336;DHT22;17142;47.990;7.846;2023-02-01T15:44:11;6.20;99.90
30336;DHT22;17142;47.990;7.846;2023-02-01T15:46:42;6.20;99.90
30336;DHT22;17142;47.990;7.846;2023-02-01T15:49:36;6.20;99.90
30336;DHT22;17142;47.990;7.846;2023-02-01T15:52:03;6.20;99.90
30336;DHT22;17142;47.990;7.846;2023-02-01T15:54:42;6.20;99.90
30336;DHT22;17142;47.990;7.846;2023-02-01T15:57:11;6.20;99.90
30336;DHT22;17142;47.990;7.846;2023-02-01T15:59:43;6.20;99.90
30336;DHT22;17142;47.990;7.846;2023-02-01T16:02:26;6.20;99.90
30336;DHT22;17142;47.990;7.846;2023-02-01T16:04:52;6.20;99.90
30336;DHT22;17142;47.990;7.846;2023-02-01T16:07:30;6.30;99.90
30336;DHT22;17142;47.990;7.846;2023-02-01T16:10:00;6.30;99.90
30336;DHT22;17142;47.990;7.846;2023-02-01T16:15:02;6.30;99.90
30336;DHT22;17142;47.990;7.846;2023-02-01T16:17:28;6.30;99.90
30336;DHT22;17142;47.990;7.846;2023-02-01T16:19:53;6.30;99.90
30336;DHT22;17142;47.990;7.846;2023-02-01T16:22:19;6.30;99.90
30336;DHT22;17142;47.990;7.846;2023-02-01T16:24:47;6.30;99.90
30336;DHT22;17142;47.990;7.846;2023-02-01T16:27:13;6.20;99.90
30336;DHT22;17142;47.990;7.846;2023-02-01T16:29:38;6.20;99.90
30336;DHT22;17142;47.990;7.846;2023-02-01T16:32:04;6.20;99.90
30336;DHT22;17142;47.990;7.846;2023-02-01T16:34:30;6.10;99.90
30336;DHT22;17142;47.990;7.846;2023-02-01T16:36:57;6.00;99.90
30336;DHT22;17142;47.990;7.846;2023-02-01T16:39:26;5.90;99.90
30336;DHT22;17142;47.990;7.846;2023-02-01T16:41:52;5.80;99.90
30336;DHT22;17142;47.990;7.846;2023-02-01T16:44:18;5.80;99.90
30336;DHT22;17142;47.990;7.846;2023-02-01T16:46:45;5.80;99.90
30336;DHT22;17142;47.990;7.846;2023-02-01T16:49:19;5.80;99.90
30336;DHT22;17142;47.990;7.846;2023-02-01T16:51:46;5.80;99.90
30336;DHT22;17142;47.990;7.846;2023-02-01T16:54:12;5.80;99.90
30336;DHT22;17142;47.990;7.846;2023-02-01T16:56:40;5.80;99.90
30336;DHT22;17142;47.990;7.846;2023-02-01T16:59:07;5.80;99.90
30336;DHT22;17142;47.990;7.846;2023-02-01T17:01:34;5.80;99.90
30336;DHT22;17142;47.990;7.846;2023-02-01T17:04:02;5.70;99.90
30336;DHT22;17142;47.990;7.846;2023-02-01T17:06:28;5.80;99.90
30336;DHT22;17142;47.990;7.846;2023-02-01T17:08:58;5.80;99.90
30336;DHT22;17142;47.990;7.846;2023-02-01T17:11:26;5.90;99.90
30336;DHT22;17142;47.990;7.846;2023-02-01T17:13:52;5.90;99.90
30336;DHT22;17142;47.990;7.846;2023-02-01T17:19:09;5.90;99.90
30336;DHT22;17142;47.990;7.846;2023-02-01T17:21:52;5.90;99.90
30336;DHT22;17142;47.990;7.846;2023-02-01T17:24:23;6.00;99.90
30336;DHT22;17142;47.990;7.846;2023-02-01T17:26:49;6.00;99.90
30336;DHT22;17142;47.990;7.846;2023-02-01T17:29:20;6.00;99.90
30336;DHT22;17142;47.990;7.846;2023-02-01T17:31:49;6.00;99.90
30336;DHT22;17142;47.990;7.846;2023-02-01T17:34:15;6.00;99.90
30336;DHT22;17142;47.990;7.846;2023-02-01T17:36:44;6.00;99.90
30336;DHT22;17142;47.990;7.846;2023-02-01T17:39:10;6.00;99.90
30336;DHT22;17142;47.990;7.846;2023-02-01T17:41:59;6.00;99.90
30336;DHT22;17142;47.990;7.846;2023-02-01T17:44:25;5.90;99.90
30336;DHT22;17142;47.990;7.846;2023-02-01T17:46:50;5.90;99.90
30336;DHT22;17142;47.990;7.846;2023-02-01T17:49:16;5.90;99.90
30336;DHT22;17142;47.990;7.846;2023-02-01T17:51:42;5.80;99.90
30336;DHT22;17142;47.990;7.846;2023-02-01T17:54:14;5.80;99.90
30336;DHT22;17142;47.990;7.846;2023-02-01T17:56:41;5.70;99.90
30336;DHT22;17142;47.990;7.846;2023-02-01T17:59:09;5.70;99.90
30336;DHT22;17142;47.990;7.846;2023-02-01T18:01:35;5.70;99.90
30336;DHT22;17142;47.990;7.846;2023-02-01T18:04:02;5.70;99.90
30336;DHT22;17142;47.990;7.846;2023-02-01T18:06:32;5.70;99.90
30336;DHT22;17142;47.990;7.846;2023-02-01T18:08:58;5.60;99.90
30336;DHT22;17142;47.990;7.846;2023-02-01T18:11:24;5.60;99.90
30336;DHT22;17142;47.990;7.846;2023-02-01T18:13:52;5.70;99.90
30336;DHT22;17142;47.990;7.846;2023-02-01T18:16:21;5.60;99.90
30336;DHT22;17142;47.990;7.846;2023-02-01T18:18:50;5.60;99.90
30336;DHT22;17142;47.990;7.846;2023-02-01T18:21:17;5.60;99.90
30336;DHT22;17142;47.990;7.846;2023-02-01T18:23:46;5.70;99.90
30336;DHT22;17142;47.990;7.846;2023-02-01T18:26:17;5.70;99.90
30336;DHT22;17142;47.990;7.846;2023-02-01T18:28:43;5.70;99.90
30336;DHT22;17142;47.990;7.846;2023-02-01T18:31:24;5.70;99.90
30336;DHT22;17142;47.990;7.846;2023-02-01T18:33:51;5.70;99.90
30336;DHT22;17142;47.990;7.846;2023-02-01T18:36:17;5.70;99.90
30336;DHT22;17142;47.990;7.846;2023-02-01T18:38:43;5.70;99.90
30336;DHT22;17142;47.990;7.846;2023-02-01T18:41:18;5.70;99.90
30336;DHT22;17142;47.990;7.846;2023-02-01T18:43:46;5.70;99.90
30336;DHT22;17142;47.990;7.846;2023-02-01T18:46:12;5.70;99.90
30336;DHT22;17142;47.990;7.846;2023-02-01T18:48:41;5.80;99.90
30336;DHT22;17142;47.990;7.846;2023-02-01T18:51:12;5.80;99.90
30336;DHT22;17142;47.990;7.846;2023-02-01T18:53:40;5.80;99.90
30336;DHT22;17142;47.990;7.846;2023-02-01T18:56:08;5.80;99.90
30336;DHT22;17142;47.990;7.846;2023-02-01T18:58:35;5.80;99.90
30336;DHT22;17142;47.990;7.846;2023-02-01T19:01:05;5.80;99.90
30336;DHT22;17142;47.990;7.846;2023-02-01T19:03:31;5.70;99.90
30336;DHT22;17142;47.990;7.846;2023-02-01T19:05:57;5.70;99.90
30336;DHT22;17142;47.990;7.846;2023-02-01T19:08:23;5.70;99.90
30336;DHT22;17142;47.990;7.846;2023-02-01T19:10:50;5.70;99.90
30336;DHT22;17142;47.990;7.846;2023-02-01T19:13:16;5.60;99.90
30336;DHT22;17142;47.990;7.846;2023-02-01T19:15:45;5.60;99.90
30336;DHT22;17142;47.990;7.846;2023-02-01T19:18:10;5.60;99.90
30336;DHT22;17142;47.990;7.846;2023-02-01T19:20:38;5.90;99.90
30336;DHT22;17142;47.990;7.846;2023-02-01T19:23:12;6.10;99.90
30336;DHT22;17142;47.990;7.846;2023-02-01T19:25:42;6.00;99.90
30336;DHT22;17142;47.990;7.846;2023-02-01T19:28:08;5.90;99.90
30336;DHT22;17142;47.990;7.846;2023-02-01T19:30:36;5.90;99.90
30336;DHT22;17142;47.990;7.846;2023-02-01T19:33:02;5.80;99.90
30336;DHT22;17142;47.990;7.846;2023-02-01T19:35:30;5.80;99.90
30336;DHT22;17142;47.990;7.846;2023-02-01T19:37:56;5.80;99.90
30336;DHT22;17142;47.990;7.846;2023-02-01T19:40:22;5.70;99.90
30336;DHT22;17142;47.990;7.846;2023-02-01T19:42:50;5.70;99.90
30336;DHT22;17142;47.990;7.846;2023-02-01T19:45:19;5.60;99.90
30336;DHT22;17142;47.990;7.846;2023-02-01T19:47:48;5.60;99.90
30336;DHT22;17142;47.990;7.846;2023-02-01T19:50:19;5.50;99.90
30336;DHT22;17142;47.990;7.846;2023-02-01T19:52:50;5.50;99.90
30336;DHT22;17142;47.990;7.846;2023-02-01T19:55:18;5.60;99.90
30336;DHT22;17142;47.990;7.846;2023-02-01T19:57:46;5.60;99.90
30336;DHT22;17142;47.990;7.846;2023-02-01T20:00:13;5.60;99.90
30336;DHT22;17142;47.990;7.846;2023-02-01T20:02:39;5.70;99.90
30336;DHT22;17142;47.990;7.846;2023-02-01T20:05:07;5.70;99.90
30336;DHT22;17142;47.990;7.846;2023-02-01T20:07:35;5.60;99.90
30336;DHT22;17142;47.990;7.846;2023-02-01T20:10:01;5.60;99.90
30336;DHT22;17142;47.990;7.846;2023-02-01T20:12:29;5.60;99.90
30336;DHT22;17142;47.990;7.846;2023-02-01T20:14:55;5.60;99.90
30336;DHT22;17142;47.990;7.846;2023-02-01T20:17:21;5.60;99.90
30336;DHT22;17142;47.990;7.846;2023-02-01T20:19:46;5.50;99.90
30336;DHT22;17142;47.990;7.846;2023-02-01T20:22:12;5.50;99.90
30336;DHT22;17142;47.990;7.846;2023-02-01T20:24:38;5.50;99.90
30336;DHT22;17142;47.990;7.846;2023-02-01T20:27:07;5.40;99.90
30336;DHT22;17142;47.990;7.846;2023-02-01T20:29:35;5.40;99.90
30336;DHT22;17142;47.990;7.846;2023-02-01T20:32:03;5.40;99.90
30336;DHT22;17142;47.990;7.846;2023-02-01T20:34:29;5.40;99.90
30336;DHT22;17142;47.990;7.846;2023-02-01T20:36:55;5.40;99.90
30336;DHT22;17142;47.990;7.846;2023-02-01T20:39:20;5.40;99.90
30336;DHT22;17142;47.990;7.846;2023-02-01T20:41:46;5.40;99.90
30336;DHT22;17142;47.990;7.846;2023-02-01T20:44:11;5.40;99.90
30336;DHT22;17142;47.990;7.846;2023-02-01T20:46:37;5.40;99.90
30336;DHT22;17142;47.990;7.846;2023-02-01T20:49:03;5.40;99.90
30336;DHT22;17142;47.990;7.846;2023-02-01T20:51:28;5.40;99.90
30336;DHT22;17142;47.990;7.846;2023-02-01T20:53:54;5.40;99.90
30336;DHT22;17142;47.990;7.846;2023-02-01T20:56:19;5.40;99.90
30336;DHT22;17142;47.990;7.846;2023-02-01T20:58:45;5.50;99.90
30336;DHT22;17142;47.990;7.846;2023-02-01T21:01:14;5.40;99.90
30336;DHT22;17142;47.990;7.846;2023-02-01T21:03:40;5.40;99.90
30336;DHT22;17142;47.990;7.846;2023-02-01T21:06:11;5.40;99.90
30336;DHT22;17142;47.990;7.846;2023-02-01T21:08:39;5.40;99.90
30336;DHT22;17142;47.990;7.846;2023-02-01T21:11:11;5.40;99.90
30336;DHT22;17142;47.990;7.846;2023-02-01T21:13:40;5.40;99.90
30336;DHT22;17142;47.990;7.846;2023-02-01T21:16:11;5.40;99.90
30336;DHT22;17142;47.990;7.846;2023-02-01T21:18:39;5.50;99.90
30336;DHT22;17142;47.990;7.846;2023-02-01T21:21:12;5.40;99.90
30336;DHT22;17142;47.990;7.846;2023-02-01T21:23:41;5.30;99.90
30336;DHT22;17142;47.990;7.846;2023-02-01T21:26:18;5.30;99.90
30336;DHT22;17142;47.990;7.846;2023-02-01T21:28:46;5.20;99.90
30336;DHT22;17142;47.990;7.846;2023-02-01T21:31:14;5.20;99.90
30336;DHT22;17142;47.990;7.846;2023-02-01T21:33:42;5.00;99.90
30336;DHT22;17142;47.990;7.846;2023-02-01T21:36:10;4.90;99.90
30336;DHT22;17142;47.990;7.846;2023-02-01T21:38:49;4.70;99.90
30336;DHT22;17142;47.990;7.846;2023-02-01T21:41:21;4.70;99.90
30336;DHT22;17142;47.990;7.846;2023-02-01T21:44:08;4.60;99.90
30336;DHT22;17142;47.990;7.846;2023-02-01T21:46:35;4.60;99.90
30336;DHT22;17142;47.990;7.846;2023-02-01T21:49:01;4.50;99.90
30336;DHT22;17142;47.990;7.846;2023-02-01T21:51:27;4.50;99.90
30336;DHT22;17142;47.990;7.846;2023-02-01T21:53:55;4.40;99.90
30336;DHT22;17142;47.990;7.846;2023-02-01T21:56:20;4.30;99.90
30336;DHT22;17142;47.990;7.846;2023-02-01T21:58:46;4.40;99.90
30336;DHT22;17142;47.990;7.846;2023-02-01T22:01:12;4.40;99.90
30336;DHT22;17142;47.990;7.846;2023-02-01T22:03:37;4.40;99.90
30336;DHT22;17142;47.990;7.846;2023-02-01T22:06:03;4.40;99.90
30336;DHT22;17142;47.990;7.846;2023-02-01T22:08:29;4.40;99.90
30336;DHT22;17142;47.990;7.846;2023-02-01T22:10:54;4.40;99.90
30336;DHT22;17142;47.990;7.846;2023-02-01T22:13:24;4.40;99.90
30336;DHT22;17142;47.990;7.846;2023-02-01T22:15:50;4.50;99.90
